createdAt,value
2022-08-11T00:00:24.686Z,1018.15
2022-08-11T00:01:24.688Z,1018.20
2022-08-11T00:02:24.693Z,1018.15
2022-08-11T00:03:24.686Z,1018.15
2022-08-11T00:04:25.700Z,1018.16
2022-08-11T00:05:25.078Z,1018.18
2022-08-11T00:06:24.680Z,1018.14
2022-08-11T00:07:24.590Z,1018.14
2022-08-11T00:08:24.587Z,1018.14
2022-08-11T00:09:24.564Z,1018.12
2022-08-11T00:10:24.562Z,1018.13
2022-08-11T00:11:26.971Z,1018.14
2022-08-11T00:12:24.559Z,1018.15
2022-08-11T00:13:24.522Z,1018.10
2022-08-11T00:14:24.548Z,1018.13
2022-08-11T00:15:25.514Z,1018.11
2022-08-11T00:16:24.487Z,1018.15
2022-08-11T00:17:24.512Z,1018.16
2022-08-11T00:18:24.478Z,1018.18
2022-08-11T00:20:14.133Z,1018.15
2022-08-11T00:20:25.466Z,1018.19
2022-08-11T00:22:02.047Z,1018.21
2022-08-11T00:22:25.447Z,1018.18
2022-08-11T00:23:24.466Z,1018.20
2022-08-11T00:24:24.416Z,1018.17
2022-08-11T00:25:24.395Z,1018.16
2022-08-11T00:26:24.407Z,1018.20
2022-08-11T00:27:24.391Z,1018.19
2022-08-11T00:28:24.407Z,1018.20
2022-08-11T00:29:24.386Z,1018.16
2022-08-11T00:30:24.336Z,1018.20
2022-08-11T00:31:24.348Z,1018.17
2022-08-11T00:32:24.341Z,1018.20
2022-08-11T00:33:41.339Z,1018.10
2022-08-11T00:34:25.330Z,1018.17
2022-08-11T00:35:51.272Z,1018.19
2022-08-11T00:36:25.800Z,1018.15
2022-08-11T00:37:24.272Z,1018.13
2022-08-11T00:38:24.261Z,1018.12
2022-08-11T00:39:28.548Z,1018.14
2022-08-11T00:40:25.271Z,1018.15
2022-08-11T00:41:24.242Z,1018.18
2022-08-11T00:42:24.210Z,1018.14
2022-08-11T00:43:24.201Z,1018.18
2022-08-11T00:44:24.182Z,1018.17
2022-08-11T00:45:24.183Z,1018.19
2022-08-11T00:46:24.183Z,1018.20
2022-08-11T00:47:24.147Z,1018.19
2022-08-11T00:48:24.148Z,1018.21
2022-08-11T00:49:24.132Z,1018.18
2022-08-11T00:50:24.124Z,1018.20
2022-08-11T00:51:24.144Z,1018.18
2022-08-11T00:52:24.114Z,1018.19
2022-08-11T00:53:24.095Z,1018.21
2022-08-11T00:54:24.074Z,1018.29
2022-08-11T00:55:24.055Z,1018.22
2022-08-11T00:56:24.048Z,1018.22
2022-08-11T00:57:36.770Z,1018.23
2022-08-11T00:58:25.046Z,1018.23
2022-08-11T00:59:34.429Z,1018.23
2022-08-11T01:00:25.019Z,1018.14
2022-08-11T01:01:24.044Z,1018.14
2022-08-11T01:02:24.032Z,1018.16
2022-08-11T01:03:25.008Z,1018.18
2022-08-11T01:04:23.971Z,1018.13
2022-08-11T01:05:23.959Z,1018.18
2022-08-11T01:06:23.972Z,1018.15
2022-08-11T01:08:02.875Z,1018.17
2022-08-11T01:08:24.960Z,1018.19
2022-08-11T01:09:23.931Z,1018.14
2022-08-11T01:10:23.904Z,1018.17
2022-08-11T01:11:23.882Z,1018.15
2022-08-11T01:12:23.961Z,1018.15
2022-08-11T01:13:23.862Z,1018.14
2022-08-11T01:14:33.761Z,1018.12
2022-08-11T01:15:24.832Z,1018.09
2022-08-11T01:16:23.834Z,1018.12
2022-08-11T01:17:23.824Z,1018.10
2022-08-11T01:18:28.307Z,1018.09
2022-08-11T01:19:24.819Z,1018.12
2022-08-11T01:20:47.804Z,1018.12
2022-08-11T01:21:24.828Z,1018.10
2022-08-11T01:22:23.770Z,1018.09
2022-08-11T01:23:23.756Z,1018.09
2022-08-11T01:24:23.737Z,1018.09
2022-08-11T01:25:23.726Z,1018.09
2022-08-11T01:26:23.727Z,1018.07
2022-08-11T01:27:23.747Z,1018.08
2022-08-11T01:28:23.709Z,1018.12
2022-08-11T01:29:23.689Z,1018.17
2022-08-11T01:30:23.679Z,1018.16
2022-08-11T01:31:23.900Z,1018.13
2022-08-11T01:32:23.699Z,1018.12
2022-08-11T01:33:23.840Z,1018.10
2022-08-11T01:34:23.647Z,1018.10
2022-08-11T01:35:23.624Z,1018.12
2022-08-11T01:36:23.601Z,1018.10
2022-08-11T01:37:23.600Z,1018.09
2022-08-11T01:38:23.581Z,1018.08
2022-08-11T01:39:23.660Z,1018.09
2022-08-11T01:40:23.603Z,1018.07
2022-08-11T01:41:23.575Z,1018.08
2022-08-11T01:42:23.542Z,1018.05
2022-08-11T01:43:23.534Z,1018.04
2022-08-11T01:44:23.523Z,1018.01
2022-08-11T01:45:24.047Z,1018.07
2022-08-11T01:46:23.504Z,1018.06
2022-08-11T01:47:23.494Z,1018.06
2022-08-11T01:48:23.503Z,1018.10
2022-08-11T01:49:58.541Z,1018.09
2022-08-11T01:50:24.508Z,1018.05
2022-08-11T01:51:23.477Z,1018.06
2022-08-11T01:52:33.595Z,1018.10
2022-08-11T01:53:24.446Z,1018.09
2022-08-11T01:54:23.433Z,1018.10
2022-08-11T01:55:23.421Z,1018.12
2022-08-11T01:56:23.400Z,1018.08
2022-08-11T01:57:23.407Z,1018.06
2022-08-11T01:58:40.665Z,1018.03
2022-08-11T01:59:24.377Z,1018.10
2022-08-11T02:00:23.363Z,1018.08
2022-08-11T02:01:23.421Z,1018.07
2022-08-11T02:02:23.349Z,1018.06
2022-08-11T02:03:23.339Z,1018.08
2022-08-11T02:04:23.309Z,1018.08
2022-08-11T02:05:23.304Z,1018.13
2022-08-11T02:06:23.290Z,1018.11
2022-08-11T02:07:23.269Z,1018.12
2022-08-11T02:08:33.132Z,1018.11
2022-08-11T02:09:24.294Z,1018.11
2022-08-11T02:10:23.248Z,1018.10
2022-08-11T02:11:23.240Z,1018.06
2022-08-11T02:12:23.229Z,1018.06
2022-08-11T02:13:29.550Z,1018.03
2022-08-11T02:14:24.221Z,1018.08
2022-08-11T02:15:23.183Z,1018.04
2022-08-11T02:16:24.131Z,1017.99
2022-08-11T02:17:23.162Z,1017.98
2022-08-11T02:18:23.160Z,1018.02
2022-08-11T02:19:23.153Z,1017.99
2022-08-11T02:20:23.190Z,1017.98
2022-08-11T02:21:23.125Z,1018.04
2022-08-11T02:22:23.116Z,1018.03
2022-08-11T02:24:03.719Z,1018.00
2022-08-11T02:24:24.100Z,1017.98
2022-08-11T02:25:23.108Z,1018.01
2022-08-11T02:26:23.091Z,1018.01
2022-08-11T02:27:23.079Z,1018.05
2022-08-11T02:28:23.067Z,1018.02
2022-08-11T02:29:23.041Z,1018.04
2022-08-11T02:30:23.077Z,1018.00
2022-08-11T02:32:23.732Z,1018.06
2022-08-11T02:32:30.016Z,1018.01
2022-08-11T02:33:23.990Z,1018.02
2022-08-11T02:34:22.988Z,1018.03
2022-08-11T02:35:22.967Z,1018.01
2022-08-11T02:36:22.974Z,1018.05
2022-08-11T02:37:23.808Z,1018.01
2022-08-11T02:38:22.951Z,1018.02
2022-08-11T02:39:23.025Z,1017.99
2022-08-11T02:40:22.911Z,1018.02
2022-08-11T02:41:22.911Z,1018.04
2022-08-11T02:42:32.892Z,1018.01
2022-08-11T02:43:23.928Z,1018.06
2022-08-11T02:44:22.871Z,1018.06
2022-08-11T02:45:22.898Z,1018.01
2022-08-11T02:46:22.853Z,1018.04
2022-08-11T02:47:22.853Z,1018.04
2022-08-11T02:48:22.885Z,1018.03
2022-08-11T02:49:22.815Z,1018.02
2022-08-11T02:50:22.805Z,1018.01
2022-08-11T02:51:22.796Z,1018.08
2022-08-11T02:52:22.796Z,1018.01
2022-08-11T02:53:22.766Z,1018.07
2022-08-11T02:54:22.781Z,1018.16
2022-08-11T02:55:48.870Z,1018.07
2022-08-11T02:56:23.741Z,1018.05
2022-08-11T02:57:22.729Z,1018.07
2022-08-11T02:58:27.214Z,1018.05
2022-08-11T02:59:23.698Z,1018.02
2022-08-11T03:00:22.699Z,1018.02
2022-08-11T03:01:22.743Z,1018.01
2022-08-11T03:02:22.679Z,1017.99
2022-08-11T03:03:22.660Z,1018.00
2022-08-11T03:04:22.662Z,1017.99
2022-08-11T03:05:22.684Z,1018.04
2022-08-11T03:06:22.651Z,1018.00
2022-08-11T03:07:29.077Z,1018.08
2022-08-11T03:08:23.635Z,1018.07
2022-08-11T03:09:22.601Z,1018.00
2022-08-11T03:10:22.593Z,1018.04
2022-08-11T03:11:22.602Z,1018.01
2022-08-11T03:12:22.587Z,1018.02
2022-08-11T03:13:22.573Z,1017.99
2022-08-11T03:14:22.555Z,1017.98
2022-08-11T03:15:22.533Z,1017.94
2022-08-11T03:16:22.544Z,1017.97
2022-08-11T03:17:22.507Z,1017.96
2022-08-11T03:18:22.525Z,1017.95
2022-08-11T03:19:22.495Z,1017.93
2022-08-11T03:20:22.523Z,1017.90
2022-08-11T03:21:23.614Z,1017.91
2022-08-11T03:22:22.453Z,1017.94
2022-08-11T03:23:22.464Z,1017.93
2022-08-11T03:24:22.457Z,1017.92
2022-08-11T03:25:22.454Z,1017.94
2022-08-11T03:26:22.429Z,1018.01
2022-08-11T03:27:22.397Z,1017.92
2022-08-11T03:28:22.459Z,1018.00
2022-08-11T03:29:25.059Z,1017.98
2022-08-11T03:30:22.368Z,1017.99
2022-08-11T03:31:22.360Z,1018.02
2022-08-11T03:32:22.338Z,1017.93
2022-08-11T03:33:23.294Z,1017.97
2022-08-11T03:34:22.351Z,1017.96
2022-08-11T03:35:22.352Z,1017.98
2022-08-11T03:36:22.312Z,1017.95
2022-08-11T03:37:22.280Z,1017.99
2022-08-11T03:38:22.284Z,1018.04
2022-08-11T03:39:23.319Z,1017.97
2022-08-11T03:40:22.277Z,1017.99
2022-08-11T03:42:02.425Z,1018.02
2022-08-11T03:42:23.223Z,1018.00
2022-08-11T03:43:22.228Z,1018.02
2022-08-11T03:44:22.240Z,1018.03
2022-08-11T03:45:22.210Z,1018.03
2022-08-11T03:46:22.218Z,1018.03
2022-08-11T03:47:22.210Z,1018.03
2022-08-11T03:48:22.166Z,1018.06
2022-08-11T03:49:22.155Z,1018.03
2022-08-11T03:50:22.144Z,1018.06
2022-08-11T03:51:22.134Z,1018.06
2022-08-11T03:52:22.114Z,1018.05
2022-08-11T03:53:22.147Z,1018.07
2022-08-11T03:54:22.107Z,1018.05
2022-08-11T03:55:22.086Z,1018.08
2022-08-11T03:56:22.077Z,1018.10
2022-08-11T03:57:22.082Z,1018.09
2022-08-11T03:58:22.073Z,1018.10
2022-08-11T03:59:22.302Z,1018.07
2022-08-11T04:00:22.044Z,1018.08
2022-08-11T04:01:22.096Z,1018.14
2022-08-11T04:02:22.010Z,1018.14
2022-08-11T04:03:22.029Z,1018.09
2022-08-11T04:04:23.010Z,1018.08
2022-08-11T04:05:21.993Z,1018.12
2022-08-11T04:06:21.975Z,1018.15
2022-08-11T04:07:21.956Z,1018.10
2022-08-11T04:08:21.941Z,1018.12
2022-08-11T04:09:21.982Z,1018.15
2022-08-11T04:10:21.949Z,1018.16
2022-08-11T04:11:21.922Z,1018.15
2022-08-11T04:12:36.487Z,1018.15
2022-08-11T04:13:22.929Z,1018.16
2022-08-11T04:14:21.883Z,1018.20
2022-08-11T04:15:21.917Z,1018.20
2022-08-11T04:16:22.829Z,1018.16
2022-08-11T04:17:22.802Z,1018.16
2022-08-11T04:18:22.787Z,1018.15
2022-08-11T04:19:21.825Z,1018.14
2022-08-11T04:20:21.809Z,1018.14
2022-08-11T04:21:21.816Z,1018.09
2022-08-11T04:22:21.829Z,1018.15
2022-08-11T04:24:35.270Z,1018.09
2022-08-11T04:24:36.635Z,1018.10
2022-08-11T04:25:22.780Z,1018.10
2022-08-11T04:26:21.776Z,1018.11
2022-08-11T04:27:21.758Z,1018.18
2022-08-11T04:28:29.088Z,1018.13
2022-08-11T04:29:22.762Z,1018.08
2022-08-11T04:30:21.701Z,1018.09
2022-08-11T04:31:51.931Z,1018.03
2022-08-11T04:32:22.695Z,1018.03
2022-08-11T04:33:21.669Z,1018.03
2022-08-11T04:34:21.657Z,1018.06
2022-08-11T04:35:21.671Z,1018.07
2022-08-11T04:36:21.641Z,1018.06
2022-08-11T04:37:21.627Z,1018.03
2022-08-11T04:38:21.640Z,1018.04
2022-08-11T04:39:21.714Z,1018.03
2022-08-11T04:40:21.599Z,1018.04
2022-08-11T04:41:21.593Z,1017.99
2022-08-11T04:42:21.571Z,1018.05
2022-08-11T04:43:21.553Z,1018.02
2022-08-11T04:44:21.554Z,1018.03
2022-08-11T04:45:21.570Z,1018.00
2022-08-11T04:46:21.533Z,1018.00
2022-08-11T04:47:21.517Z,1018.06
2022-08-11T04:48:21.544Z,1018.04
2022-08-11T04:49:25.644Z,1018.04
2022-08-11T04:50:22.495Z,1018.03
2022-08-11T04:51:21.489Z,1018.06
2022-08-11T04:52:21.481Z,1018.09
2022-08-11T04:53:21.459Z,1018.04
2022-08-11T04:54:26.394Z,1018.06
2022-08-11T04:55:22.426Z,1018.06
2022-08-11T04:56:21.427Z,1018.06
2022-08-11T04:57:21.437Z,1018.07
2022-08-11T04:58:21.400Z,1018.12
2022-08-11T04:59:22.429Z,1018.11
2022-08-11T05:00:21.379Z,1018.17
2022-08-11T05:01:21.432Z,1018.17
2022-08-11T05:02:21.464Z,1018.14
2022-08-11T05:03:21.355Z,1018.13
2022-08-11T05:04:21.396Z,1018.13
2022-08-11T05:05:21.344Z,1018.13
2022-08-11T05:06:21.299Z,1018.13
2022-08-11T05:07:21.326Z,1018.12
2022-08-11T05:08:24.049Z,1018.13
2022-08-11T05:09:21.280Z,1018.20
2022-08-11T05:10:21.273Z,1018.16
2022-08-11T05:11:21.296Z,1018.20
2022-08-11T05:12:21.272Z,1018.19
2022-08-11T05:13:21.245Z,1018.17
2022-08-11T05:14:21.242Z,1018.19
2022-08-11T05:15:21.221Z,1018.16
2022-08-11T05:16:21.213Z,1018.19
2022-08-11T05:17:21.197Z,1018.12
2022-08-11T05:18:21.185Z,1018.17
2022-08-11T05:19:21.191Z,1018.19
2022-08-11T05:20:21.254Z,1018.21
2022-08-11T05:21:21.185Z,1018.23
2022-08-11T05:22:21.135Z,1018.23
2022-08-11T05:23:21.125Z,1018.24
2022-08-11T05:24:21.166Z,1018.28
2022-08-11T05:26:42.545Z,1018.36
2022-08-11T05:26:45.330Z,1018.32
2022-08-11T05:27:22.110Z,1018.36
2022-08-11T05:28:21.110Z,1018.37
2022-08-11T05:29:21.217Z,1018.43
2022-08-11T05:30:21.067Z,1018.42
2022-08-11T05:31:21.068Z,1018.42
2022-08-11T05:32:21.079Z,1018.40
2022-08-11T05:33:21.044Z,1018.42
2022-08-11T05:34:21.002Z,1018.43
2022-08-11T05:36:01.349Z,1018.42
2022-08-11T05:36:21.993Z,1018.45
2022-08-11T05:37:28.050Z,1018.42
2022-08-11T05:38:21.982Z,1018.38
2022-08-11T05:39:21.010Z,1018.37
2022-08-11T05:40:21.929Z,1018.45
2022-08-11T05:41:20.951Z,1018.40
2022-08-11T05:42:29.875Z,1018.42
2022-08-11T05:43:21.941Z,1018.42
2022-08-11T05:44:22.300Z,1018.38
2022-08-11T05:45:20.902Z,1018.42
2022-08-11T05:46:20.877Z,1018.38
2022-08-11T05:47:20.862Z,1018.41
2022-08-11T05:48:41.834Z,1018.42
2022-08-11T05:49:20.865Z,1018.43
2022-08-11T05:50:31.052Z,1018.33
2022-08-11T05:51:29.874Z,1018.42
2022-08-11T05:52:21.818Z,1018.40
2022-08-11T05:53:21.794Z,1018.43
2022-08-11T05:54:28.915Z,1018.35
2022-08-11T05:55:21.787Z,1018.35
2022-08-11T05:56:20.799Z,1018.32
2022-08-11T05:57:43.877Z,1018.34
2022-08-11T05:58:21.767Z,1018.41
2022-08-11T05:59:20.758Z,1018.39
2022-08-11T06:00:20.749Z,1018.39
2022-08-11T06:01:20.775Z,1018.37
2022-08-11T06:02:20.700Z,1018.38
2022-08-11T06:03:20.681Z,1018.40
2022-08-11T06:04:20.680Z,1018.40
2022-08-11T06:05:20.651Z,1018.39
2022-08-11T06:06:20.674Z,1018.34
2022-08-11T06:07:20.658Z,1018.38
2022-08-11T06:08:20.680Z,1018.41
2022-08-11T06:09:20.617Z,1018.39
2022-08-11T06:10:20.630Z,1018.41
2022-08-11T06:11:20.592Z,1018.41
2022-08-11T06:12:21.605Z,1018.40
2022-08-11T06:13:20.583Z,1018.35
2022-08-11T06:14:20.636Z,1018.32
2022-08-11T06:15:20.553Z,1018.38
2022-08-11T06:16:20.545Z,1018.36
2022-08-11T06:17:20.526Z,1018.37
2022-08-11T06:18:20.526Z,1018.30
2022-08-11T06:19:20.568Z,1018.28
2022-08-11T06:20:20.496Z,1018.31
2022-08-11T06:21:20.486Z,1018.31
2022-08-11T06:22:20.498Z,1018.31
2022-08-11T06:23:20.511Z,1018.31
2022-08-11T06:24:20.466Z,1018.33
2022-08-11T06:25:20.475Z,1018.32
2022-08-11T06:26:20.440Z,1018.28
2022-08-11T06:27:20.416Z,1018.34
2022-08-11T06:28:21.075Z,1018.27
2022-08-11T06:29:20.432Z,1018.29
2022-08-11T06:30:21.400Z,1018.32
2022-08-11T06:31:20.408Z,1018.34
2022-08-11T06:32:20.386Z,1018.31
2022-08-11T06:33:20.370Z,1018.32
2022-08-11T06:34:27.293Z,1018.27
2022-08-11T06:35:21.360Z,1018.32
2022-08-11T06:36:20.331Z,1018.30
2022-08-11T06:37:20.321Z,1018.28
2022-08-11T06:38:20.310Z,1018.28
2022-08-11T06:39:20.437Z,1018.30
2022-08-11T06:40:20.363Z,1018.33
2022-08-11T06:41:20.276Z,1018.34
2022-08-11T06:42:20.262Z,1018.31
2022-08-11T06:43:20.302Z,1018.29
2022-08-11T06:44:20.234Z,1018.32
2022-08-11T06:45:20.223Z,1018.33
2022-08-11T06:46:24.692Z,1018.36
2022-08-11T06:47:21.200Z,1018.32
2022-08-11T06:48:20.864Z,1018.33
2022-08-11T06:49:20.193Z,1018.36
2022-08-11T06:50:20.166Z,1018.30
2022-08-11T06:51:20.181Z,1018.28
2022-08-11T06:52:35.584Z,1018.37
2022-08-11T06:53:21.135Z,1018.33
2022-08-11T06:54:20.131Z,1018.27
2022-08-11T06:55:56.835Z,1018.26
2022-08-11T06:56:21.106Z,1018.31
2022-08-11T06:57:35.461Z,1018.30
2022-08-11T06:58:21.103Z,1018.34
2022-08-11T06:59:20.087Z,1018.37
2022-08-11T07:00:20.082Z,1018.33
2022-08-11T07:01:20.075Z,1018.36
2022-08-11T07:02:20.078Z,1018.35
2022-08-11T07:03:20.033Z,1018.36
2022-08-11T07:04:20.019Z,1018.37
2022-08-11T07:05:20.027Z,1018.38
2022-08-11T07:06:20.000Z,1018.44
2022-08-11T07:07:19.990Z,1018.39
2022-08-11T07:08:33.642Z,1018.40
2022-08-11T07:09:21.022Z,1018.41
2022-08-11T07:10:19.982Z,1018.40
2022-08-11T07:11:19.953Z,1018.35
2022-08-11T07:12:19.939Z,1018.33
2022-08-11T07:13:45.111Z,1018.36
2022-08-11T07:14:20.935Z,1018.36
2022-08-11T07:15:19.898Z,1018.38
2022-08-11T07:16:24.780Z,1018.36
2022-08-11T07:17:20.895Z,1018.42
2022-08-11T07:18:19.874Z,1018.37
2022-08-11T07:19:19.856Z,1018.40
2022-08-11T07:20:19.860Z,1018.38
2022-08-11T07:22:00.440Z,1018.42
2022-08-11T07:22:21.010Z,1018.34
2022-08-11T07:23:19.837Z,1018.38
2022-08-11T07:24:19.790Z,1018.34
2022-08-11T07:25:20.777Z,1018.39
2022-08-11T07:26:19.768Z,1018.37
2022-08-11T07:27:19.749Z,1018.39
2022-08-11T07:28:19.771Z,1018.38
2022-08-11T07:29:19.728Z,1018.38
2022-08-11T07:30:19.741Z,1018.38
2022-08-11T07:31:19.772Z,1018.39
2022-08-11T07:32:19.715Z,1018.36
2022-08-11T07:34:07.441Z,1018.35
2022-08-11T07:34:20.712Z,1018.30
2022-08-11T07:35:19.682Z,1018.36
2022-08-11T07:36:19.659Z,1018.33
2022-08-11T07:37:19.700Z,1018.31
2022-08-11T07:38:22.857Z,1018.28
2022-08-11T07:39:20.673Z,1018.30
2022-08-11T07:40:19.622Z,1018.29
2022-08-11T07:41:19.603Z,1018.29
2022-08-11T07:42:19.751Z,1018.32
2022-08-11T07:43:19.596Z,1018.33
2022-08-11T07:44:19.587Z,1018.28
2022-08-11T07:45:19.576Z,1018.28
2022-08-11T07:46:19.605Z,1018.34
2022-08-11T07:47:19.548Z,1018.30
2022-08-11T07:48:19.525Z,1018.32
2022-08-11T07:49:19.519Z,1018.29
2022-08-11T07:50:19.521Z,1018.29
2022-08-11T07:51:19.520Z,1018.27
2022-08-11T07:52:19.520Z,1018.25
2022-08-11T07:53:19.478Z,1018.27
2022-08-11T07:54:19.487Z,1018.25
2022-08-11T07:55:19.712Z,1018.24
2022-08-11T07:56:19.633Z,1018.26
2022-08-11T07:58:13.980Z,1018.25
2022-08-11T07:58:20.507Z,1018.26
2022-08-11T07:59:19.431Z,1018.22
2022-08-11T08:00:19.391Z,1018.22
2022-08-11T08:01:22.375Z,1018.27
2022-08-11T08:02:19.397Z,1018.19
2022-08-11T08:03:19.402Z,1018.19
2022-08-11T08:04:19.364Z,1018.17
2022-08-11T08:05:19.370Z,1018.11
2022-08-11T08:06:35.439Z,1018.07
2022-08-11T08:07:20.321Z,1018.10
2022-08-11T08:08:19.345Z,1018.08
2022-08-11T08:09:19.293Z,1018.07
2022-08-11T08:10:19.295Z,1018.10
2022-08-11T08:11:22.563Z,1018.12
2022-08-11T08:12:20.273Z,1018.10
2022-08-11T08:13:19.263Z,1018.15
2022-08-11T08:14:19.266Z,1018.19
2022-08-11T08:15:19.254Z,1018.13
2022-08-11T08:16:19.289Z,1018.17
2022-08-11T08:17:19.227Z,1018.13
2022-08-11T08:18:26.098Z,1018.11
2022-08-11T08:19:20.197Z,1018.21
2022-08-11T08:20:19.200Z,1018.25
2022-08-11T08:21:19.162Z,1018.21
2022-08-11T08:22:48.589Z,1018.22
2022-08-11T08:23:20.138Z,1018.21
2022-08-11T08:24:19.156Z,1018.22
2022-08-11T08:25:19.118Z,1018.25
2022-08-11T08:26:19.121Z,1018.23
2022-08-11T08:27:19.099Z,1018.24
2022-08-11T08:28:19.130Z,1018.25
2022-08-11T08:29:19.139Z,1018.23
2022-08-11T08:30:19.099Z,1018.24
2022-08-11T08:31:19.071Z,1018.22
2022-08-11T08:32:19.061Z,1018.25
2022-08-11T08:33:19.071Z,1018.20
2022-08-11T08:34:19.030Z,1018.24
2022-08-11T08:35:19.033Z,1018.24
2022-08-11T08:36:19.003Z,1018.19
2022-08-11T08:37:45.806Z,1018.27
2022-08-11T08:38:19.984Z,1018.24
2022-08-11T08:39:19.060Z,1018.25
2022-08-11T08:40:18.977Z,1018.23
2022-08-11T08:41:18.959Z,1018.26
2022-08-11T08:42:18.935Z,1018.24
2022-08-11T08:43:18.979Z,1018.22
2022-08-11T08:44:37.624Z,1018.26
2022-08-11T08:45:19.897Z,1018.20
2022-08-11T08:46:18.898Z,1018.20
2022-08-11T08:47:41.117Z,1018.21
2022-08-11T08:48:19.939Z,1018.30
2022-08-11T08:49:18.859Z,1018.26
2022-08-11T08:50:18.876Z,1018.26
2022-08-11T08:51:18.850Z,1018.25
2022-08-11T08:52:26.044Z,1018.28
2022-08-11T08:53:19.821Z,1018.24
2022-08-11T08:54:18.833Z,1018.26
2022-08-11T08:55:18.804Z,1018.27
2022-08-11T08:56:18.812Z,1018.27
2022-08-11T08:57:18.780Z,1018.26
2022-08-11T08:58:18.769Z,1018.25
2022-08-11T08:59:18.751Z,1018.23
2022-08-11T09:00:23.004Z,1018.21
2022-08-11T09:01:19.839Z,1018.24
2022-08-11T09:02:18.729Z,1018.27
2022-08-11T09:04:21.045Z,1018.30
2022-08-11T09:05:18.709Z,1018.29
2022-08-11T09:06:18.679Z,1018.30
2022-08-11T09:07:18.661Z,1018.28
2022-08-11T09:08:18.656Z,1018.26
2022-08-11T09:09:18.636Z,1018.28
2022-08-11T09:10:18.650Z,1018.31
2022-08-11T09:11:18.624Z,1018.27
2022-08-11T09:12:36.586Z,1018.29
2022-08-11T09:13:19.600Z,1018.27
2022-08-11T09:14:18.589Z,1018.25
2022-08-11T09:15:19.681Z,1018.21
2022-08-11T09:16:18.573Z,1018.23
2022-08-11T09:17:18.550Z,1018.20
2022-08-11T09:18:18.552Z,1018.20
2022-08-11T09:19:18.540Z,1018.25
2022-08-11T09:20:18.534Z,1018.25
2022-08-11T09:21:39.201Z,1018.21
2022-08-11T09:22:19.526Z,1018.25
2022-08-11T09:24:26.039Z,1018.21
2022-08-11T09:25:19.523Z,1018.20
2022-08-11T09:26:18.483Z,1018.20
2022-08-11T09:27:18.445Z,1018.16
2022-08-11T09:28:18.443Z,1018.20
2022-08-11T09:29:18.424Z,1018.16
2022-08-11T09:30:18.423Z,1018.12
2022-08-11T09:31:18.439Z,1018.15
2022-08-11T09:32:18.425Z,1018.14
2022-08-11T09:33:18.381Z,1018.15
2022-08-11T09:34:18.411Z,1018.14
2022-08-11T09:35:18.376Z,1018.11
2022-08-11T09:36:18.360Z,1018.11
2022-08-11T09:37:28.458Z,1018.10
2022-08-11T09:38:19.362Z,1018.09
2022-08-11T09:39:18.404Z,1018.12
2022-08-11T09:40:18.332Z,1018.11
2022-08-11T09:41:18.313Z,1018.08
2022-08-11T09:42:23.102Z,1018.04
2022-08-11T09:43:18.290Z,1018.06
2022-08-11T09:44:18.289Z,1018.04
2022-08-11T09:45:18.258Z,1018.06
2022-08-11T09:46:18.242Z,1018.04
2022-08-11T09:47:18.222Z,1018.07
2022-08-11T09:48:18.259Z,1018.05
2022-08-11T09:49:18.203Z,1018.07
2022-08-11T09:50:18.236Z,1018.07
2022-08-11T09:51:18.227Z,1018.06
2022-08-11T09:52:18.207Z,1018.04
2022-08-11T09:53:34.968Z,1018.09
2022-08-11T09:54:19.191Z,1018.06
2022-08-11T09:55:18.140Z,1018.08
2022-08-11T09:56:18.145Z,1018.05
2022-08-11T09:57:18.130Z,1018.00
2022-08-11T09:58:42.065Z,1018.03
2022-08-11T09:59:19.125Z,1018.04
2022-08-11T10:00:18.117Z,1018.03
2022-08-11T10:01:18.129Z,1017.99
2022-08-11T10:02:18.088Z,1018.03
2022-08-11T10:03:18.209Z,1018.04
2022-08-11T10:04:18.058Z,1018.09
2022-08-11T10:05:18.030Z,1018.06
2022-08-11T10:06:18.051Z,1018.06
2022-08-11T10:07:18.011Z,1018.05
2022-08-11T10:08:18.041Z,1017.99
2022-08-11T10:09:18.071Z,1017.95
2022-08-11T10:10:18.072Z,1017.94
2022-08-11T10:11:17.966Z,1017.97
2022-08-11T10:12:18.036Z,1017.93
2022-08-11T10:14:32.180Z,1017.96
2022-08-11T10:14:32.797Z,1017.87
2022-08-11T10:15:18.925Z,1017.86
2022-08-11T10:16:17.935Z,1017.84
2022-08-11T10:17:17.908Z,1017.85
2022-08-11T10:18:17.934Z,1017.81
2022-08-11T10:19:17.879Z,1017.77
2022-08-11T10:20:20.452Z,1017.78
2022-08-11T10:21:17.865Z,1017.81
2022-08-11T10:22:17.861Z,1017.78
2022-08-11T10:23:17.835Z,1017.74
2022-08-11T10:24:17.898Z,1017.75
2022-08-11T10:25:19.638Z,1017.72
2022-08-11T10:26:17.845Z,1017.73
2022-08-11T10:27:17.795Z,1017.71
2022-08-11T10:28:33.793Z,1017.69
2022-08-11T10:29:19.121Z,1017.69
2022-08-11T10:30:17.870Z,1017.65
2022-08-11T10:31:17.756Z,1017.67
2022-08-11T10:32:17.757Z,1017.64
2022-08-11T10:33:37.028Z,1017.65
2022-08-11T10:34:19.755Z,1017.62
2022-08-11T10:35:17.754Z,1017.66
2022-08-11T10:36:17.725Z,1017.64
2022-08-11T10:37:17.702Z,1017.60
2022-08-11T10:38:17.801Z,1017.62
2022-08-11T10:39:18.128Z,1017.61
2022-08-11T10:40:17.670Z,1017.56
2022-08-11T10:41:17.703Z,1017.55
2022-08-11T10:42:35.055Z,1017.53
2022-08-11T10:43:59.389Z,1017.50
2022-08-11T10:44:18.634Z,1017.50
2022-08-11T10:45:17.640Z,1017.47
2022-08-11T10:46:17.623Z,1017.50
2022-08-11T10:47:18.597Z,1017.48
2022-08-11T10:48:17.574Z,1017.45
2022-08-11T10:49:17.564Z,1017.45
2022-08-11T10:50:17.550Z,1017.48
2022-08-11T10:51:25.633Z,1017.47
2022-08-11T10:52:18.532Z,1017.44
2022-08-11T10:53:17.526Z,1017.49
2022-08-11T10:54:17.519Z,1017.46
2022-08-11T10:55:17.489Z,1017.43
2022-08-11T10:56:17.488Z,1017.44
2022-08-11T10:57:17.500Z,1017.44
2022-08-11T10:58:17.460Z,1017.44
2022-08-11T10:59:17.458Z,1017.43
2022-08-11T11:00:17.440Z,1017.43
2022-08-11T11:01:17.474Z,1017.43
2022-08-11T11:02:17.491Z,1017.43
2022-08-11T11:03:23.557Z,1017.44
2022-08-11T11:04:18.423Z,1017.38
2022-08-11T11:05:17.399Z,1017.34
2022-08-11T11:06:29.449Z,1017.37
2022-08-11T11:07:18.451Z,1017.32
2022-08-11T11:08:17.370Z,1017.34
2022-08-11T11:09:17.346Z,1017.32
2022-08-11T11:10:17.342Z,1017.34
2022-08-11T11:11:18.335Z,1017.30
2022-08-11T11:12:17.303Z,1017.27
2022-08-11T11:13:17.349Z,1017.25
2022-08-11T11:14:17.337Z,1017.22
2022-08-11T11:15:17.808Z,1017.23
2022-08-11T11:16:17.307Z,1017.21
2022-08-11T11:17:17.266Z,1017.24
2022-08-11T11:18:17.256Z,1017.22
2022-08-11T11:19:17.246Z,1017.18
2022-08-11T11:20:37.021Z,1017.19
2022-08-11T11:21:18.219Z,1017.20
2022-08-11T11:22:17.209Z,1017.22
2022-08-11T11:23:17.219Z,1017.19
2022-08-11T11:24:17.179Z,1017.20
2022-08-11T11:25:17.166Z,1017.18
2022-08-11T11:26:17.194Z,1017.14
2022-08-11T11:27:18.149Z,1017.20
2022-08-11T11:28:17.145Z,1017.16
2022-08-11T11:29:17.147Z,1017.10
2022-08-11T11:30:17.154Z,1017.11
2022-08-11T11:31:17.134Z,1017.11
2022-08-11T11:32:17.152Z,1017.09
2022-08-11T11:33:18.115Z,1017.04
2022-08-11T11:34:17.069Z,1017.09
2022-08-11T11:35:17.054Z,1017.05
2022-08-11T11:36:17.054Z,1017.02
2022-08-11T11:37:17.101Z,1017.03
2022-08-11T11:38:17.041Z,1017.04
2022-08-11T11:39:17.051Z,1017.00
2022-08-11T11:40:17.015Z,1017.02
2022-08-11T11:41:17.014Z,1017.01
2022-08-11T11:42:16.990Z,1016.98
2022-08-11T11:43:17.048Z,1016.91
2022-08-11T11:44:16.991Z,1016.92
2022-08-11T11:45:23.807Z,1016.87
2022-08-11T11:46:17.969Z,1016.87
2022-08-11T11:47:16.953Z,1016.87
2022-08-11T11:48:16.954Z,1016.90
2022-08-11T11:49:17.528Z,1016.86
2022-08-11T11:50:16.922Z,1016.92
2022-08-11T11:51:16.927Z,1016.92
2022-08-11T11:52:16.924Z,1016.91
2022-08-11T11:53:16.891Z,1016.90
2022-08-11T11:54:16.914Z,1016.90
2022-08-11T11:55:16.934Z,1016.88
2022-08-11T11:56:16.845Z,1016.89
2022-08-11T11:57:16.833Z,1016.86
2022-08-11T11:58:18.770Z,1016.80
2022-08-11T11:59:16.835Z,1016.79
2022-08-11T12:00:16.805Z,1016.78
2022-08-11T12:01:16.810Z,1016.83
2022-08-11T12:02:16.821Z,1016.80
2022-08-11T12:03:16.853Z,1016.81
2022-08-11T12:04:16.780Z,1016.77
2022-08-11T12:05:16.767Z,1016.78
2022-08-11T12:06:16.745Z,1016.80
2022-08-11T12:07:16.727Z,1016.80